HOURLY OBS INDEX

035

Central Highlands

BLACKWATER AIRPORT

Site: 035134
Alt: 193.0m
km of


  Time     Wind        Temp  DP   Baro     Rain since   Rain past  Vis(m), Cloud(base in m), Weather
  local        km/h                         9am  last   hr   10m    
Wed 15:00  ENE 11/ 20  29.3  9.4  1013.1    0.0   0.0   0.0   0.0   ----- 
Wed 15:30  NNE 20/ 24  30.0  9.5  1012.8    0.0   0.0   0.0   0.0   ----- 
Wed 16:00    N  7/ 15  29.6  9.2  1012.7    0.0   0.0   0.0   0.0   ----- 
Wed 16:30   NE  7/ 15  29.8  8.8  1012.8    0.0   0.0   0.0   0.0   ----- 
Wed 17:00  NNE  7/ 11  29.1  8.7  1013.1    0.0   0.0   0.0   0.0   ----- 
Wed 17:30    E  9/ 11  28.3  8.1  1013.4    0.0   0.0   0.0   0.0   ----- 
Wed 18:00   NE  7/  9  26.4  7.9  1013.7    0.0   0.0   0.0   0.0   ----- 
Wed 18:30   NE  9/  9  24.8  7.9  1014.1    0.0   0.0   0.0   0.0   ----- 
Wed 19:00  ENE  7/  9  23.8  7.8  1014.3    0.0   0.0   0.0   0.0   ----- 
Wed 19:30  ENE  9/  9  23.2  8.1  1014.4    0.0   0.0   0.0   0.0   ----- 
Wed 20:00  ENE  7/  9  23.0  8.7  1014.6    0.0   0.0   0.0   0.0   ----- 
Wed 20:30   NE 15/ 20  21.5  9.7  1015.2    0.0   0.0   0.0   0.0   ----- 

CLERMONT AIRPORT

Site: 035124
Alt: 270.3m
98km NNW of EMERALD


  Time     Wind        Temp  DP   Baro     Rain since   Rain past  Vis(m), Cloud(base in m), Weather
  local        km/h                         9am  last   hr   10m    
Wed 15:00    S 11/ 17  30.7  5.9  1012.7    0.0   0.0   0.0   0.0   ----- 
Wed 15:30  SSE  9/ 15  30.4  6.3  1012.4    0.0   0.0   0.0   0.0   ----- 
Wed 16:00  WNW  6/ 13  31.5  6.5  1012.3    0.0   0.0   0.0   0.0   ----- 
Wed 16:30   NW  2/  7  30.7  5.2  1012.4    0.0   0.0   0.0   0.0   ----- 
Wed 17:00  SSW  9/ 15  31.0  5.4  1012.8    0.0   0.0   0.0   0.0   ----- 
Wed 17:30    S  4/ 11  30.1  5.4  1013.0    0.0   0.0   0.0   0.0   ----- 
Wed 18:00    C  0/  2  28.3  5.2  1013.3    0.0   0.0   0.0   0.0   ----- 
Wed 18:30    C  0/  0  26.3  5.3  1013.5    0.0   0.0   0.0   0.0   ----- 
Wed 19:00    C  0/  0  24.2  5.5  1013.8    0.0   0.0   0.0   0.0   ----- 
Wed 19:30    C  0/  0  22.2  5.2  1014.2    0.0   0.0   0.0   0.0   ----- 
Wed 20:00    C  0/  2  20.9  5.3  1014.6    0.0   0.0   0.0   0.0   ----- 
Wed 20:30   NW  2/  4  20.7  5.5  1014.8    0.0   0.0   0.0   0.0   ----- 

EMERALD AIRPORT

Site: 035264
Alt: 189.4m
7km SSE of EMERALD


  Time     Wind        Temp  DP   Baro     Rain since   Rain past  Vis(m), Cloud(base in m), Weather
  local        km/h                         9am  last   hr   10m    
Wed 15:00  ENE 11/ 24  30.9  9.7  1012.5    0.0   0.0   0.0   0.0   10000 
Wed 15:30    E  4/  9  30.6  8.9  1012.1    0.0   0.0   0.0   0.0   10000 
Wed 16:00   NE  7/ 15  30.8  9.1  1012.0    0.0   0.0   0.0   0.0   10000 
Wed 16:30   NE  9/ 15  31.0  8.1  1012.2    0.0   0.0   0.0   0.0   10000 
Wed 17:00  ENE  4/  9  31.3  8.3  1012.5    0.0   0.0   0.0   0.0   10000 
Wed 17:30  ESE  6/  7  30.0  7.8  1012.7    0.0   0.0   0.0   0.0   10000 
Wed 18:00  ESE  7/  9  28.0  7.8  1012.9    0.0   0.0   0.0   0.0   10000 
Wed 18:30    E 11/ 13  26.3  8.8  1013.3    0.0   0.0   0.0   0.0   10000 
Wed 19:00    E 13/ 15  24.8  9.1  1013.4    0.0   0.0   0.0   0.0   10000 
Wed 19:30    E 13/ 13  23.8  9.0  1013.6    0.0   0.0   0.0   0.0   10000 
Wed 20:00  ENE 11/ 13  23.9  9.9  1013.9    0.0   0.0   0.0   0.0   10000 
Wed 20:30  ENE 13/ 17  24.0  9.9  1014.2    0.0   0.0   0.0   0.0   10000 

LOCHINGTON

Site: 035139
Alt: 267.2m
80km SW of EMERALD


  Time     Wind        Temp  DP   Baro     Rain since   Rain past  Vis(m), Cloud(base in m), Weather
  local        km/h                         9am  last   hr   10m    
Wed 15:00   NW  6/ 13  31.2  9.4  1012.6    0.0   0.0   0.0   0.0   ----- 
Wed 15:30    S  6/ 11  30.4  8.2  1012.4    0.0   0.0   0.0   0.0   ----- 
Wed 16:00  NNW  4/ 11  31.0  8.1  1012.3    0.0   0.0   0.0   0.0   ----- 
Wed 16:30   SE  4/  9  30.6  6.5  1012.5    0.0   0.0   0.0   0.0   ----- 
Wed 17:00  ESE  6/  7  29.4  6.7  1012.6    0.0   0.0   0.0   0.0   ----- 
Wed 17:30  ESE  4/  6  28.9  7.5  1012.8    0.0   0.0   0.0   0.0   ----- 
Wed 18:00    E  6/  7  27.5  6.3  1013.0    0.0   0.0   0.0   0.0   ----- 
Wed 18:30  ENE  7/  7  27.7  5.9  1013.3    0.0   0.0   0.0   0.0   ----- 
Wed 19:00   NE  7/  9  26.8  5.7  1013.5    0.0   0.0   0.0   0.0   ----- 
Wed 19:30   NE  7/  9  26.1  6.2  1013.7    0.0   0.0   0.0   0.0   ----- 
Wed 20:00    C  0/  4  21.8  4.8  1014.0    0.0   0.0   0.0   0.0   ----- 
Wed 20:30  ENE  2/  4  21.9  5.8  1014.3    0.0   0.0   0.0   0.0   ----- 

ROLLESTON AIRPORT

Site: 035129
Alt: 219.5m
101km SSW of BLACKWATER


  Time     Wind        Temp  DP   Baro     Rain since   Rain past  Vis(m), Cloud(base in m), Weather
  local        km/h                         9am  last   hr   10m    
Wed 15:00  NNW 11/ 19  29.5  9.6  1013.1    0.0   0.0   0.0   0.0   ----- 
Wed 15:30   NW 11/ 20  29.4  9.0  1012.8    0.0   0.0   0.0   0.0   ----- 
Wed 16:00  WSW  6/ 17  29.6  9.2  1012.8    0.0   0.0   0.0   0.0   ----- 
Wed 16:30  NNW  9/ 19  29.6  8.6  1012.9    0.0   0.0   0.0   0.0   ----- 
Wed 17:00  NNW  7/ 17  29.3  8.4  1013.0    0.0   0.0   0.0   0.0   ----- 
Wed 17:30    N  7/ 13  28.6  8.8  1013.2    0.0   0.0   0.0   0.0   ----- 
Wed 18:00    N  9/ 11  26.8  8.7  1013.2    0.0   0.0   0.0   0.0   ----- 
Wed 18:30  NNE  7/  9  25.4  8.8  1013.5    0.0   0.0   0.0   0.0   ----- 
Wed 19:00  NNE  7/  9  24.3  8.7  1013.8    0.0   0.0   0.0   0.0   ----- 
Wed 19:30  NNE  7/  9  23.7  8.9  1014.0    0.0   0.0   0.0   0.0   ----- 
Wed 20:00  NNE  7/  9  23.3  8.6  1014.2    0.0   0.0   0.0   0.0   ----- 
Wed 20:30  NNE  6/  7  21.9  8.4  1014.4    0.0   0.0   0.0   0.0   -----